createdAt,value
2023-04-25T00:01:05.996Z,98967.84
2023-04-25T00:03:34.291Z,98958.09
2023-04-25T00:06:03.448Z,98963.50
2023-04-25T00:08:31.450Z,98963.25
2023-04-25T00:11:00.828Z,98958.09
2023-04-25T00:13:28.758Z,98951.06
2023-04-25T00:15:57.426Z,98951.31
2023-04-25T00:18:25.601Z,98950.50
2023-04-25T00:20:53.599Z,98951.31
2023-04-25T00:23:21.618Z,98951.81
2023-04-25T00:25:50.101Z,98947.47
2023-04-25T00:28:19.444Z,98945.84
2023-04-25T00:30:47.819Z,98941.50
2023-04-25T00:33:15.726Z,98942.56
2023-04-25T00:35:43.796Z,98937.19
2023-04-25T00:38:11.795Z,98946.09
2023-04-25T00:40:39.797Z,98935.53
2023-04-25T00:43:07.841Z,98932.81
2023-04-25T00:45:37.263Z,98939.28
2023-04-25T00:48:05.680Z,98934.97
2023-04-25T00:50:34.112Z,98936.84
2023-04-25T00:53:02.152Z,98933.59
2023-04-25T00:55:30.150Z,98931.44
2023-04-25T00:57:58.061Z,98940.09
2023-04-25T01:00:25.983Z,98939.88
2023-04-25T01:02:55.611Z,98943.63
2023-04-25T01:05:23.768Z,98948.78
2023-04-25T01:07:51.793Z,98942.56
2023-04-25T01:10:19.793Z,98947.16
2023-04-25T01:12:47.814Z,98947.97
2023-04-25T01:15:15.841Z,98945.00
2023-04-25T01:17:45.296Z,98937.19
2023-04-25T01:20:15.023Z,98930.13
2023-04-25T01:22:44.420Z,98935.53
2023-04-25T01:25:12.472Z,98930.63
2023-04-25T01:27:40.641Z,98922.53
2023-04-25T01:30:09.713Z,98926.31
2023-04-25T01:32:40.156Z,98933.84
2023-04-25T01:35:10.282Z,98935.44
2023-04-25T01:37:38.653Z,98935.72
2023-04-25T01:40:09.233Z,98933.03
2023-04-25T01:42:37.575Z,98939.47
2023-04-25T01:45:06.067Z,98938.66
2023-04-25T01:47:36.151Z,98932.44
2023-04-25T01:50:04.349Z,98929.19
2023-04-25T01:52:32.327Z,98935.38
2023-04-25T01:55:00.470Z,98938.06
2023-04-25T01:57:29.777Z,98943.75
2023-04-25T01:59:59.210Z,98934.03
2023-04-25T02:02:27.339Z,98933.75
2023-04-25T02:04:55.684Z,98936.22
2023-04-25T02:07:23.748Z,98942.44
2023-04-25T02:09:51.785Z,98938.66
2023-04-25T02:12:19.704Z,98940.31
2023-04-25T02:14:49.202Z,98930.31
2023-04-25T02:17:17.185Z,98927.84
2023-04-25T02:19:45.907Z,98931.38
2023-04-25T02:22:13.893Z,98929.50
2023-04-25T02:24:41.902Z,98937.03
2023-04-25T02:27:09.903Z,98920.84
2023-04-25T02:29:37.991Z,98922.47
2023-04-25T02:32:10.253Z,98917.06
2023-04-25T02:34:38.596Z,98919.19
2023-04-25T02:37:06.562Z,98919.19
2023-04-25T02:39:34.492Z,98922.66
2023-04-25T02:42:03.734Z,98923.47
2023-04-25T02:44:31.661Z,98926.16
2023-04-25T02:46:59.709Z,98927.25
2023-04-25T02:49:29.141Z,98928.28
2023-04-25T02:51:57.166Z,98925.59
2023-04-25T02:54:25.102Z,98926.66
2023-04-25T02:56:53.049Z,98924.22
2023-04-25T02:59:20.942Z,98931.50
2023-04-25T03:01:48.988Z,98926.09
2023-04-25T03:04:16.943Z,98925.28
2023-04-25T03:06:46.280Z,98937.38
2023-04-25T03:09:14.258Z,98930.91
2023-04-25T03:11:42.260Z,98935.00
2023-04-25T03:14:10.266Z,98926.66
2023-04-25T03:16:38.358Z,98926.91
2023-04-25T03:19:06.483Z,98926.66
2023-04-25T03:21:34.592Z,98929.09
2023-04-25T03:24:05.153Z,98931.00
2023-04-25T03:26:33.196Z,98925.59
2023-04-25T03:29:01.196Z,98916.13
2023-04-25T03:31:29.342Z,98922.31
2023-04-25T03:33:57.399Z,98926.09
2023-04-25T03:36:25.459Z,98926.91
2023-04-25T03:38:53.397Z,98923.16
2023-04-25T03:41:22.793Z,98920.69
2023-04-25T03:43:51.025Z,98926.91
2023-04-25T03:46:19.218Z,98919.06
2023-04-25T03:48:47.304Z,98920.69
2023-04-25T03:51:15.280Z,98925.53
2023-04-25T03:53:43.327Z,98922.81
2023-04-25T03:56:11.709Z,98928.72
2023-04-25T03:58:41.056Z,98928.72
2023-04-25T04:01:09.423Z,98927.09
2023-04-25T04:03:37.674Z,98931.41
2023-04-25T04:06:06.677Z,98923.31
2023-04-25T04:08:34.794Z,98923.31
2023-04-25T04:11:02.840Z,98930.84
2023-04-25T04:13:30.981Z,98931.91
2023-04-25T04:16:00.414Z,98928.41
2023-04-25T04:18:28.561Z,98931.69
2023-04-25T04:20:56.867Z,98923.59
2023-04-25T04:23:25.089Z,98936.22
2023-04-25T04:25:53.756Z,98931.09
2023-04-25T04:28:21.800Z,98934.59
2023-04-25T04:30:52.129Z,98930.03
2023-04-25T04:33:21.683Z,98933.78
2023-04-25T04:35:49.678Z,98931.91
2023-04-25T04:38:17.631Z,98937.06
2023-04-25T04:40:45.601Z,98945.16
2023-04-25T04:43:13.511Z,98932.50
2023-04-25T04:45:41.522Z,98925.44
2023-04-25T04:48:09.777Z,98941.63
2023-04-25T04:50:40.040Z,98928.97
2023-04-25T04:53:08.167Z,98947.03
2023-04-25T04:55:36.295Z,98942.69
2023-04-25T04:58:04.393Z,98931.91
2023-04-25T05:00:33.152Z,98942.13
2023-04-25T05:03:01.451Z,98946.47
2023-04-25T05:05:29.563Z,98951.88
2023-04-25T05:07:59.329Z,98951.03
2023-04-25T05:10:28.558Z,98952.91
2023-04-25T05:12:56.605Z,98959.13
2023-04-25T05:15:24.621Z,98958.31
2023-04-25T05:17:52.690Z,98974.50
2023-04-25T05:20:20.787Z,98961.28
2023-04-25T05:22:49.578Z,98977.44
2023-04-25T05:25:20.448Z,98979.06
2023-04-25T05:27:49.516Z,98986.34
2023-04-25T05:30:18.761Z,98988.22
2023-04-25T05:32:48.003Z,98996.06
2023-04-25T05:35:17.385Z,98991.47
2023-04-25T05:37:48.189Z,99004.72
2023-04-25T05:40:17.619Z,99006.63
2023-04-25T05:42:49.716Z,99006.03
2023-04-25T05:45:18.658Z,99014.38
2023-04-25T05:47:46.643Z,99013.56
2023-04-25T05:50:14.656Z,99022.72
2023-04-25T05:52:42.586Z,99025.66
2023-04-25T05:55:11.299Z,99034.56
2023-04-25T05:57:42.334Z,99026.72
2023-04-25T06:00:13.635Z,99039.13
2023-04-25T06:02:41.986Z,99046.41
2023-04-25T06:05:10.800Z,99044.28
2023-04-25T06:07:39.113Z,99049.91
2023-04-25T06:10:08.601Z,99049.91
2023-04-25T06:12:36.612Z,99053.44
2023-04-25T06:15:13.250Z,99067.75
2023-04-25T06:17:53.618Z,99059.09
2023-04-25T06:20:24.206Z,99066.38
2023-04-25T06:22:52.660Z,99083.34
2023-04-25T06:25:20.960Z,99076.66
2023-04-25T06:27:48.869Z,99089.06
2023-04-25T06:30:19.411Z,99082.88
2023-04-25T06:32:55.182Z,99091.53
2023-04-25T06:35:23.276Z,99093.16
2023-04-25T06:37:51.308Z,99099.63
2023-04-25T06:40:19.584Z,99091.53
2023-04-25T06:42:47.568Z,99110.41
2023-04-25T06:45:15.617Z,99095.28
2023-04-25T06:47:43.993Z,99110.66
2023-04-25T06:50:13.599Z,99112.53
2023-04-25T06:52:41.863Z,99120.63
2023-04-25T06:55:10.743Z,99110.91
2023-04-25T06:57:38.676Z,99128.13
2023-04-25T07:00:10.507Z,99120.84
2023-04-25T07:02:38.715Z,99121.91
2023-04-25T07:05:07.478Z,99128.38
2023-04-25T07:07:36.864Z,99122.41
2023-04-25T07:10:05.319Z,99120.75
2023-04-25T07:12:33.272Z,99128.84
2023-04-25T07:15:06.851Z,99132.38
2023-04-25T07:17:35.861Z,99136.13
2023-04-25T07:20:04.816Z,99133.44
2023-04-25T07:22:32.816Z,99135.09
2023-04-25T07:25:02.204Z,99136.94
2023-04-25T07:27:30.135Z,99137.78
2023-04-25T07:29:58.355Z,99141.50
2023-04-25T07:32:26.370Z,99137.78
2023-04-25T07:34:54.581Z,99146.91
2023-04-25T07:37:22.640Z,99146.91
2023-04-25T07:39:50.615Z,99140.72
2023-04-25T07:42:20.059Z,99139.63
2023-04-25T07:44:50.878Z,99152.31
2023-04-25T07:47:20.266Z,99146.91
2023-04-25T07:49:48.966Z,99153.38
2023-04-25T07:52:16.989Z,99159.84
2023-04-25T07:54:44.992Z,99161.47
2023-04-25T07:57:15.096Z,99161.47
2023-04-25T07:59:44.498Z,99159.34
2023-04-25T08:02:12.550Z,99163.44
2023-04-25T08:04:40.731Z,99167.53
2023-04-25T08:07:08.961Z,99162.16
2023-04-25T08:09:37.792Z,99164.34
2023-04-25T08:12:06.195Z,99164.94
2023-04-25T08:14:37.107Z,99165.50
2023-04-25T08:17:06.688Z,99169.84
2023-04-25T08:19:34.704Z,99167.69
2023-04-25T08:22:02.685Z,99166.06
2023-04-25T08:24:30.646Z,99176.97
2023-04-25T08:26:59.947Z,99182.13
2023-04-25T08:29:29.483Z,99179.16
2023-04-25T08:31:57.830Z,99180.81
2023-04-25T08:34:27.610Z,99188.66
2023-04-25T08:36:55.630Z,99188.44
2023-04-25T08:39:23.739Z,99185.47
2023-04-25T08:41:51.732Z,99185.25
2023-04-25T08:44:19.696Z,99183.13
2023-04-25T08:46:50.741Z,99189.34
2023-04-25T08:49:19.256Z,99197.16
2023-04-25T08:51:48.936Z,99197.16
2023-04-25T08:54:30.222Z,99198.00
2023-04-25T08:57:05.024Z,99208.31
2023-04-25T08:59:37.852Z,99203.72
2023-04-25T09:02:07.146Z,99209.44
2023-04-25T09:04:35.243Z,99206.53
2023-04-25T09:07:04.692Z,99210.66
2023-04-25T09:09:32.813Z,99207.69
2023-04-25T09:12:01.189Z,99210.16
2023-04-25T09:14:29.201Z,99216.94
2023-04-25T09:17:01.517Z,99212.13
2023-04-25T09:22:02.179Z,99221.38
2023-04-25T09:24:35.481Z,99215.97
2023-04-25T09:27:05.848Z,99212.22
2023-04-25T09:29:34.267Z,99221.13
2023-04-25T09:32:17.293Z,99221.94
2023-04-25T09:34:45.927Z,99219.84
2023-04-25T09:37:14.156Z,99218.19
2023-04-25T09:39:43.581Z,99224.41
2023-04-25T09:42:11.576Z,99219.84
2023-04-25T09:44:39.830Z,99228.75
2023-04-25T09:47:10.329Z,99226.84
2023-04-25T09:49:41.622Z,99226.63
2023-04-25T09:52:09.668Z,99237.16
2023-04-25T09:54:37.701Z,99221.81
2023-04-25T09:57:10.623Z,99228.09
2023-04-25T09:59:39.010Z,99220.00
2023-04-25T10:02:07.189Z,99218.69
2023-04-25T10:04:35.596Z,99210.59
2023-04-25T10:07:03.827Z,99204.94
2023-04-25T10:09:32.970Z,99196.84
2023-04-25T10:12:01.035Z,99210.34
2023-04-25T10:14:30.486Z,99209.28
2023-04-25T10:16:58.518Z,99204.72
2023-04-25T10:19:26.794Z,99209.84
2023-04-25T10:21:57.970Z,99202.81
2023-04-25T10:24:26.062Z,99206.34
2023-04-25T10:26:54.087Z,99199.03
2023-04-25T10:29:25.765Z,99197.19
2023-04-25T10:31:55.202Z,99201.50
2023-04-25T10:34:27.149Z,99199.63
2023-04-25T10:36:55.237Z,99202.09
2023-04-25T10:39:27.006Z,99203.72
2023-04-25T10:41:56.221Z,99198.09
2023-04-25T10:44:24.432Z,99197.59
2023-04-25T10:46:52.452Z,99196.50
2023-04-25T10:49:33.169Z,99186.78
2023-04-25T10:52:17.076Z,99187.84
2023-04-25T10:54:48.164Z,99179.19
2023-04-25T10:57:32.776Z,99175.97
2023-04-25T11:00:02.225Z,99181.38
2023-04-25T11:02:30.545Z,99175.97
2023-04-25T11:05:00.025Z,99176.22
2023-04-25T11:07:33.360Z,99178.38
2023-04-25T11:10:02.795Z,99172.38
2023-04-25T11:12:32.167Z,99170.72
2023-04-25T11:15:03.939Z,99167.47
2023-04-25T11:17:32.187Z,99166.91
2023-04-25T11:20:01.688Z,99173.34
2023-04-25T11:22:30.968Z,99179.59
2023-04-25T11:24:58.990Z,99173.34
2023-04-25T11:27:27.059Z,99173.63
2023-04-25T11:29:55.327Z,99169.28
2023-04-25T11:32:23.780Z,99169.75
2023-04-25T11:34:52.975Z,99173.53
2023-04-25T11:37:22.300Z,99171.06
2023-04-25T11:39:50.424Z,99164.84
2023-04-25T11:42:18.436Z,99164.84
2023-04-25T11:44:46.547Z,99163.22
2023-04-25T11:47:14.510Z,99166.97
2023-04-25T11:49:42.561Z,99165.34
2023-04-25T11:52:10.765Z,99158.88
2023-04-25T11:54:40.237Z,99159.72
2023-04-25T11:57:08.291Z,99153.25
2023-04-25T11:59:36.373Z,99154.06
2023-04-25T12:02:04.456Z,99147.03
2023-04-25T12:04:33.122Z,99146.22
2023-04-25T12:07:02.729Z,99143.75
2023-04-25T12:09:31.483Z,99136.72
2023-04-25T12:12:03.983Z,99141.28
2023-04-25T12:14:33.387Z,99132.38
2023-04-25T12:17:02.568Z,99136.72
2023-04-25T12:19:34.638Z,99131.31
2023-04-25T12:22:03.874Z,99128.38
2023-04-25T12:24:32.302Z,99118.38
2023-04-25T12:27:05.257Z,99116.25
2023-04-25T12:29:48.681Z,99111.66
2023-04-25T12:32:18.044Z,99108.75
2023-04-25T12:34:46.249Z,99106.03
2023-04-25T12:37:14.227Z,99107.94
2023-04-25T12:39:42.210Z,99106.28
2023-04-25T12:42:13.096Z,99102.75
2023-04-25T12:44:41.772Z,99112.50
2023-04-25T12:47:09.804Z,99096.31
2023-04-25T12:49:37.910Z,99101.72
2023-04-25T12:52:06.044Z,99101.72
2023-04-25T12:54:34.049Z,99097.34
2023-04-25T12:57:03.999Z,99093.03
2023-04-25T12:59:33.550Z,99095.75
2023-04-25T13:02:01.537Z,99102.19
2023-04-25T13:04:29.668Z,99102.19
2023-04-25T13:06:57.883Z,99095.75
2023-04-25T13:09:29.001Z,99098.44
2023-04-25T13:11:58.409Z,99094.66
2023-04-25T13:14:27.292Z,99094.16
2023-04-25T13:16:56.747Z,99097.44
2023-04-25T13:19:24.712Z,99085.59
2023-04-25T13:21:52.736Z,99090.72
2023-04-25T13:24:20.965Z,99082.41
2023-04-25T13:26:49.059Z,99083.22
2023-04-25T13:29:17.205Z,99076.72
2023-04-25T13:31:45.311Z,99070.50
2023-04-25T13:34:14.775Z,99080.25
2023-04-25T13:36:42.730Z,99065.69
2023-04-25T13:39:11.149Z,99064.03
2023-04-25T13:41:39.180Z,99061.59
2023-04-25T13:44:07.224Z,99053.75
2023-04-25T13:46:45.413Z,99053.75
2023-04-25T13:49:15.580Z,99051.63
2023-04-25T13:51:44.386Z,99043.28
2023-04-25T13:54:12.385Z,99045.97
2023-04-25T13:56:43.439Z,99051.63
2023-04-25T13:59:11.766Z,99036.22
2023-04-25T14:01:39.865Z,99044.59
2023-04-25T14:04:07.966Z,99047.53
2023-04-25T14:06:37.804Z,99040.25
2023-04-25T14:09:07.711Z,99043.75
2023-04-25T14:11:35.732Z,99028.41
2023-04-25T14:14:03.695Z,99031.09
2023-04-25T14:16:32.733Z,99028.94
2023-04-25T14:19:01.545Z,99021.91
2023-04-25T14:21:29.686Z,99021.69
2023-04-25T14:23:59.030Z,99023.06
2023-04-25T14:26:26.943Z,99019.84
2023-04-25T14:28:54.871Z,99017.72
2023-04-25T14:31:23.273Z,99012.63
2023-04-25T14:33:51.799Z,99023.16
2023-04-25T14:36:20.100Z,99021.53
2023-04-25T14:38:48.338Z,99024.25
2023-04-25T14:41:17.695Z,99025.31
2023-04-25T14:43:46.172Z,99031.28
2023-04-25T14:46:14.220Z,99025.47
2023-04-25T14:49:00.611Z,99020.13
2023-04-25T14:51:28.779Z,99020.72
2023-04-25T14:53:56.896Z,99016.00
2023-04-25T14:56:26.489Z,99019.56
2023-04-25T14:58:54.607Z,99017.59
2023-04-25T15:01:22.877Z,99021.88
2023-04-25T15:03:52.420Z,99019.63
2023-04-25T15:06:20.716Z,99016.84
2023-04-25T15:08:48.764Z,99016.34
2023-04-25T15:11:16.756Z,99013.06
2023-04-25T15:13:46.152Z,99016.28
2023-04-25T15:16:14.211Z,99020.16
2023-04-25T15:18:42.345Z,99014.97
2023-04-25T15:21:10.299Z,99013.47
2023-04-25T15:23:39.118Z,99010.81
2023-04-25T15:26:07.152Z,99005.72
2023-04-25T15:28:36.032Z,98998.88
2023-04-25T15:31:05.535Z,99004.78
2023-04-25T15:33:33.508Z,99008.31
2023-04-25T15:36:04.350Z,99002.53
2023-04-25T15:38:32.569Z,98998.50
2023-04-25T15:41:00.524Z,98993.69
2023-04-25T15:43:28.501Z,98998.25
2023-04-25T15:45:56.782Z,98993.91
2023-04-25T15:48:26.468Z,98995.00
2023-04-25T15:50:54.468Z,98993.34
2023-04-25T15:53:22.477Z,99005.25
2023-04-25T15:55:50.520Z,98995.75
2023-04-25T15:58:18.624Z,98987.88
2023-04-25T16:00:48.947Z,99006.22
2023-04-25T16:03:16.974Z,98992.16
2023-04-25T16:05:46.482Z,98988.06
2023-04-25T16:08:14.437Z,98996.41
2023-04-25T16:10:43.075Z,99001.25
2023-04-25T16:13:11.373Z,98988.81
2023-04-25T16:15:40.031Z,99003.41
2023-04-25T16:18:08.414Z,99001.75
2023-04-25T16:20:36.510Z,98992.84
2023-04-25T16:23:05.949Z,98997.66
2023-04-25T16:25:33.940Z,98996.06
2023-04-25T16:28:02.035Z,98995.25
2023-04-25T16:30:30.077Z,98999.00
2023-04-25T16:32:58.229Z,99001.38
2023-04-25T16:35:26.379Z,98993.53
2023-04-25T16:37:54.365Z,98995.41
2023-04-25T16:40:23.975Z,98998.38
2023-04-25T16:42:52.050Z,98998.38
2023-04-25T16:45:21.691Z,98990.75
2023-04-25T16:47:49.838Z,98992.66
2023-04-25T16:50:20.215Z,98995.63
2023-04-25T16:52:48.203Z,98993.16
2023-04-25T16:55:16.087Z,99006.94
2023-04-25T16:57:45.570Z,98997.44
2023-04-25T17:00:15.068Z,99001.19
2023-04-25T17:02:43.310Z,99009.56
2023-04-25T17:05:11.981Z,99007.09
2023-04-25T17:07:40.045Z,99009.00
2023-04-25T17:10:08.898Z,99016.28
2023-04-25T17:12:36.825Z,99026.25
2023-04-25T17:15:07.375Z,99022.72
2023-04-25T17:17:35.388Z,99030.00
2023-04-25T17:20:04.309Z,99026.50
2023-04-25T17:22:32.436Z,99028.41
2023-04-25T17:25:00.366Z,99024.03
2023-04-25T17:27:28.322Z,99037.53
2023-04-25T17:29:56.397Z,99037.81
2023-04-25T17:32:25.814Z,99045.09
2023-04-25T17:34:53.964Z,99045.09
2023-04-25T17:37:22.585Z,99044.53
2023-04-25T17:39:51.183Z,99049.34
2023-04-25T17:42:19.225Z,99061.22
2023-04-25T17:44:47.576Z,99058.53
2023-04-25T17:47:15.539Z,99061.47
2023-04-25T17:49:44.883Z,99061.69
2023-04-25T17:52:12.949Z,99063.56
2023-04-25T17:54:41.015Z,99078.97
2023-04-25T17:57:08.984Z,99069.25
2023-04-25T17:59:37.071Z,99073.00
2023-04-25T18:02:05.165Z,99079.47
2023-04-25T18:04:33.272Z,99077.81
2023-04-25T18:07:02.652Z,99077.81
2023-04-25T18:09:32.475Z,99092.38
2023-04-25T18:12:00.438Z,99090.75
2023-04-25T18:14:28.450Z,99100.75
2023-04-25T18:16:56.478Z,99096.16
2023-04-25T18:19:24.494Z,99098.28
2023-04-25T18:21:54.524Z,99099.91
2023-04-25T18:24:24.531Z,99101.78
2023-04-25T18:26:54.363Z,99108.25
2023-04-25T18:31:57.341Z,99110.97
2023-04-25T18:34:27.427Z,99112.00
2023-04-25T18:36:56.530Z,99115.56
2023-04-25T18:39:26.288Z,99112.84
2023-04-25T18:42:01.670Z,99116.00
2023-04-25T18:44:36.651Z,99114.41
2023-04-25T18:47:04.791Z,99120.88
2023-04-25T18:49:32.986Z,99113.81
2023-04-25T18:52:01.039Z,99112.19
2023-04-25T18:54:30.444Z,99119.47
2023-04-25T18:57:00.957Z,99114.31
2023-04-25T18:59:28.922Z,99119.72
2023-04-25T19:01:56.883Z,99117.25
2023-04-25T19:04:25.039Z,99121.81
2023-04-25T19:06:54.216Z,99117.47
2023-04-25T19:09:22.207Z,99121.81
2023-04-25T19:11:51.649Z,99123.94
2023-04-25T19:14:21.002Z,99123.94
2023-04-25T19:16:49.047Z,99116.88
2023-04-25T19:19:17.001Z,99126.88
2023-04-25T19:21:44.981Z,99126.06
2023-04-25T19:24:13.060Z,99119.84
2023-04-25T19:26:41.079Z,99120.66
2023-04-25T19:29:11.404Z,99132.28
2023-04-25T19:31:40.323Z,99128.75
2023-04-25T19:34:09.285Z,99125.25
2023-04-25T19:36:38.489Z,99131.47
2023-04-25T19:39:07.490Z,99126.56
2023-04-25T19:41:36.817Z,99130.88
2023-04-25T19:44:06.790Z,99132.75
2023-04-25T19:46:42.729Z,99131.94
2023-04-25T19:49:11.375Z,99116.56
2023-04-25T19:51:39.428Z,99121.16
2023-04-25T19:54:07.494Z,99114.91
2023-04-25T19:56:35.824Z,99114.09
2023-04-25T19:59:04.004Z,99118.47
2023-04-25T20:01:32.043Z,99116.81
2023-04-25T20:04:01.655Z,99118.69
2023-04-25T20:06:29.583Z,99117.88
2023-04-25T20:08:57.517Z,99117.88
2023-04-25T20:11:28.607Z,99123.50
2023-04-25T20:13:58.852Z,99121.06
2023-04-25T20:16:26.930Z,99121.88
2023-04-25T20:18:55.417Z,99124.31
2023-04-25T20:21:25.036Z,99125.41
2023-04-25T20:23:53.071Z,99119.19
2023-04-25T20:26:22.762Z,99129.97
2023-04-25T20:28:51.403Z,99120.22
2023-04-25T20:31:19.756Z,99113.78
2023-04-25T20:33:48.182Z,99121.06
2023-04-25T20:36:16.786Z,99120.00
2023-04-25T20:38:46.082Z,99118.38
2023-04-25T20:41:16.044Z,99115.69
2023-04-25T20:43:43.999Z,99120.00
2023-04-25T20:46:19.073Z,99118.38
2023-04-25T20:48:47.162Z,99114.59
2023-04-25T20:51:15.561Z,99119.19
2023-04-25T20:53:43.520Z,99124.59
2023-04-25T20:58:59.198Z,99122.59
2023-04-25T21:01:27.873Z,99126.94
2023-04-25T21:03:56.083Z,99124.22
2023-04-25T21:06:24.264Z,99124.22
2023-04-25T21:08:52.729Z,99124.22
2023-04-25T21:11:23.443Z,99129.63
2023-04-25T21:13:52.366Z,99129.63
2023-04-25T21:16:20.401Z,99128.00
2023-04-25T21:18:48.383Z,99128.00
2023-04-25T21:21:16.328Z,99128.00
2023-04-25T21:23:44.302Z,99122.59
2023-04-25T21:26:12.287Z,99128.00
2023-04-25T21:28:41.612Z,99119.09
2023-04-25T21:31:09.639Z,99129.88
2023-04-25T21:33:37.865Z,99131.78
2023-04-25T21:36:06.219Z,99125.56
2023-04-25T21:38:34.798Z,99132.00
2023-04-25T21:41:02.742Z,99133.88
2023-04-25T21:43:30.735Z,99134.13
2023-04-25T21:46:21.569Z,99132.25
2023-04-25T21:48:47.959Z,99132.25
2023-04-25T21:51:17.038Z,99133.31
2023-04-25T21:53:44.928Z,99133.56
2023-04-25T21:56:13.201Z,99132.25
2023-04-25T21:58:41.092Z,99132.25
2023-04-25T22:01:10.730Z,99139.78
2023-04-25T22:03:38.823Z,99141.66
2023-04-25T22:06:07.075Z,99142.72
2023-04-25T22:08:35.053Z,99142.97
2023-04-25T22:11:03.104Z,99145.66
2023-04-25T22:13:31.317Z,99138.63
2023-04-25T22:16:00.036Z,99153.97
2023-04-25T22:18:30.421Z,99151.53
2023-04-25T22:20:58.390Z,99152.59
2023-04-25T22:23:26.710Z,99156.34
2023-04-25T22:25:54.597Z,99149.91
2023-04-25T22:28:22.788Z,99150.97
2023-04-25T22:30:51.103Z,99142.88
2023-04-25T22:33:19.078Z,99146.63
2023-04-25T22:35:48.478Z,99141.22
2023-04-25T22:38:16.836Z,99148.50
2023-04-25T22:40:47.922Z,99147.91
2023-04-25T22:43:15.966Z,99149.78
2023-04-25T22:45:43.978Z,99151.69
2023-04-25T22:48:12.002Z,99147.38
2023-04-25T22:50:40.931Z,99149.78
2023-04-25T22:53:10.534Z,99142.78
2023-04-25T22:55:38.516Z,99146.28
2023-04-25T22:58:08.614Z,99149.78
2023-04-25T23:00:37.636Z,99146.28
2023-04-25T23:03:06.269Z,99148.16
2023-04-25T23:05:34.424Z,99148.16
2023-04-25T23:08:02.526Z,99154.38
2023-04-25T23:10:31.910Z,99144.66
2023-04-25T23:13:00.967Z,99148.41
2023-04-25T23:15:30.980Z,99143.81
2023-04-25T23:17:59.117Z,99142.19
2023-04-25T23:20:27.196Z,99140.56
2023-04-25T23:22:55.609Z,99138.09
2023-04-25T23:25:23.488Z,99141.03
2023-04-25T23:27:53.090Z,99151.25
2023-04-25T23:30:21.229Z,99145.88
2023-04-25T23:32:49.169Z,99147.16
2023-04-25T23:35:17.108Z,99143.41
2023-04-25T23:37:45.062Z,99141.50
2023-04-25T23:40:13.535Z,99142.59
2023-04-25T23:42:41.986Z,99139.09
2023-04-25T23:45:11.715Z,99138.25
2023-04-25T23:47:39.736Z,99135.81
2023-04-25T23:50:09.072Z,99129.59
2023-04-25T23:52:37.894Z,99138.50
2023-04-25T23:55:06.732Z,99138.50
2023-04-25T23:57:34.787Z,99132.88
